createdAt,value
2023-05-19T00:00:32.133Z,11.45
2023-05-19T00:01:31.914Z,11.43
2023-05-19T00:02:31.940Z,11.43
2023-05-19T00:03:31.998Z,11.45
2023-05-19T00:04:31.869Z,11.44
2023-05-19T00:05:31.915Z,11.43
2023-05-19T00:06:31.995Z,11.43
2023-05-19T00:07:31.849Z,11.44
2023-05-19T00:08:31.827Z,11.43
2023-05-19T00:09:31.825Z,11.43
2023-05-19T00:10:32.235Z,11.43
2023-05-19T00:11:31.867Z,11.41
2023-05-19T00:12:31.817Z,11.37
2023-05-19T00:13:31.808Z,11.37
2023-05-19T00:14:31.775Z,11.36
2023-05-19T00:15:31.837Z,11.35
2023-05-19T00:16:31.774Z,11.32
2023-05-19T00:17:31.762Z,11.32
2023-05-19T00:18:31.738Z,11.30
2023-05-19T00:19:31.728Z,11.32
2023-05-19T00:20:31.955Z,11.33
2023-05-19T00:21:31.706Z,11.30
2023-05-19T00:22:31.678Z,11.33
2023-05-19T00:23:31.675Z,11.30
2023-05-19T00:24:31.670Z,11.29
2023-05-19T00:25:31.664Z,11.29
2023-05-19T00:26:31.633Z,11.27
2023-05-19T00:27:31.635Z,11.25
2023-05-19T00:28:31.626Z,11.23
2023-05-19T00:29:31.620Z,11.25
2023-05-19T00:30:31.740Z,11.23
2023-05-19T00:31:31.755Z,11.23
2023-05-19T00:32:31.609Z,11.22
2023-05-19T00:33:31.607Z,11.19
2023-05-19T00:34:31.546Z,11.22
2023-05-19T00:35:31.548Z,11.22
2023-05-19T00:36:31.557Z,11.18
2023-05-19T00:37:31.550Z,11.18
2023-05-19T00:38:31.492Z,11.18
2023-05-19T00:39:31.510Z,11.14
2023-05-19T00:40:31.707Z,11.14
2023-05-19T00:41:31.490Z,11.12
2023-05-19T00:42:31.476Z,11.12
2023-05-19T00:43:31.488Z,11.14
2023-05-19T00:44:31.444Z,11.12
2023-05-19T00:45:31.434Z,11.11
2023-05-19T00:46:31.465Z,11.10
2023-05-19T00:47:31.497Z,11.05
2023-05-19T00:48:31.382Z,11.08
2023-05-19T00:49:31.419Z,11.08
2023-05-19T00:50:31.554Z,11.07
2023-05-19T00:51:31.379Z,11.08
2023-05-19T00:52:31.371Z,11.07
2023-05-19T00:53:31.360Z,11.05
2023-05-19T00:54:31.324Z,11.08
2023-05-19T00:55:31.372Z,11.05
2023-05-19T00:56:31.308Z,11.04
2023-05-19T00:57:31.363Z,11.02
2023-05-19T00:58:31.386Z,11.02
2023-05-19T00:59:31.306Z,11.00
2023-05-19T01:00:31.564Z,10.99
2023-05-19T01:01:31.303Z,10.97
2023-05-19T01:02:31.308Z,10.99
2023-05-19T01:03:31.541Z,10.97
2023-05-19T01:04:31.270Z,10.97
2023-05-19T01:05:31.234Z,10.97
2023-05-19T01:06:31.219Z,10.97
2023-05-19T01:07:31.212Z,10.97
2023-05-19T01:08:31.188Z,10.96
2023-05-19T01:09:31.185Z,10.96
2023-05-19T01:10:31.380Z,10.96
2023-05-19T01:11:31.178Z,10.92
2023-05-19T01:12:31.153Z,10.93
2023-05-19T01:13:31.163Z,10.92
2023-05-19T01:14:31.127Z,10.92
2023-05-19T01:15:31.147Z,10.92
2023-05-19T01:16:31.156Z,10.90
2023-05-19T01:17:31.135Z,10.90
2023-05-19T01:18:31.092Z,10.89
2023-05-19T01:19:31.115Z,10.90
2023-05-19T01:20:31.344Z,10.89
2023-05-19T01:21:31.138Z,10.87
2023-05-19T01:22:31.068Z,10.86
2023-05-19T01:23:31.110Z,10.84
2023-05-19T01:24:31.010Z,10.84
2023-05-19T01:25:31.022Z,10.84
2023-05-19T01:26:31.001Z,10.84
2023-05-19T01:27:31.014Z,10.82
2023-05-19T01:28:30.972Z,10.79
2023-05-19T01:29:30.976Z,10.79
2023-05-19T06:01:04.454Z,10.90
2023-05-19T06:02:05.476Z,10.90
2023-05-19T06:03:05.592Z,10.94
2023-05-19T06:04:05.457Z,10.96
2023-05-19T06:05:05.434Z,10.99
2023-05-19T06:06:05.599Z,11.00
2023-05-19T06:07:05.460Z,11.00
2023-05-19T06:08:05.460Z,11.04
2023-05-19T06:09:05.416Z,11.08
2023-05-19T06:10:05.341Z,11.10
2023-05-19T06:11:05.321Z,11.11
2023-05-19T06:12:05.331Z,11.15
2023-05-19T06:13:05.381Z,11.17
2023-05-19T06:14:05.349Z,11.18
2023-05-19T06:15:05.279Z,11.22
2023-05-19T06:16:05.298Z,11.23
2023-05-19T06:17:05.282Z,11.25
2023-05-19T06:18:05.350Z,11.27
2023-05-19T06:19:05.351Z,11.30
2023-05-19T06:20:05.249Z,11.32
2023-05-19T06:21:05.212Z,11.35
2023-05-19T06:22:05.224Z,11.37
2023-05-19T06:23:05.182Z,11.40
2023-05-19T06:24:05.218Z,11.43
2023-05-19T06:25:05.212Z,11.44
2023-05-19T06:26:05.187Z,11.47
2023-05-19T06:27:05.160Z,11.50
2023-05-19T06:28:05.160Z,11.52
2023-05-19T06:29:05.186Z,11.54
2023-05-19T06:30:05.133Z,11.55
2023-05-19T06:31:05.146Z,11.60
2023-05-19T06:32:05.104Z,11.62
2023-05-19T06:33:05.130Z,11.65
2023-05-19T06:34:05.081Z,11.68
2023-05-19T06:35:05.078Z,11.69
2023-05-19T06:36:05.103Z,11.70
2023-05-19T06:37:05.061Z,11.73
2023-05-19T06:38:05.071Z,11.75
2023-05-19T06:39:05.022Z,11.77
2023-05-19T06:40:05.033Z,11.78
2023-05-19T06:41:05.013Z,11.80
2023-05-19T06:42:05.056Z,11.81
2023-05-19T06:43:05.017Z,11.84
2023-05-19T06:44:04.989Z,11.87
2023-05-19T06:45:05.032Z,11.86
2023-05-19T06:46:04.969Z,11.90
2023-05-19T06:47:04.971Z,11.88
2023-05-19T06:48:04.990Z,11.91
2023-05-19T06:49:04.921Z,11.95
2023-05-19T06:50:04.960Z,11.97
2023-05-19T06:51:04.903Z,11.97
2023-05-19T06:52:04.909Z,11.99
2023-05-19T06:53:04.873Z,12.00
2023-05-19T06:54:04.921Z,12.00
2023-05-19T06:55:04.849Z,12.03
2023-05-19T06:56:04.883Z,12.04
2023-05-19T06:57:04.825Z,12.07
2023-05-19T06:58:04.828Z,12.12
2023-05-19T06:59:04.817Z,12.13
2023-05-19T07:00:04.837Z,12.17
2023-05-19T07:01:04.794Z,12.18
2023-05-19T07:02:04.888Z,12.21
2023-05-19T07:03:04.850Z,12.24
2023-05-19T07:04:04.819Z,12.27
2023-05-19T07:05:04.755Z,12.31
2023-05-19T07:06:06.395Z,12.35
2023-05-19T07:07:04.716Z,12.39
2023-05-19T07:08:04.767Z,12.42
2023-05-19T07:09:04.703Z,12.47
2023-05-19T07:10:04.720Z,12.49
2023-05-19T07:11:04.686Z,12.55
2023-05-19T07:12:04.689Z,12.61
2023-05-19T07:13:04.673Z,12.65
2023-05-19T07:14:04.678Z,12.68
2023-05-19T07:15:04.642Z,12.72
2023-05-19T07:16:04.664Z,12.76
2023-05-19T07:17:04.632Z,12.80
2023-05-19T07:18:04.651Z,12.86
2023-05-19T07:19:04.641Z,12.87
2023-05-19T07:20:04.623Z,12.93
2023-05-19T07:21:04.593Z,12.95
2023-05-19T07:22:04.594Z,13.00
2023-05-19T07:23:04.584Z,13.03
2023-05-19T07:24:04.610Z,13.04
2023-05-19T07:25:04.538Z,13.05
2023-05-19T07:26:04.539Z,13.11
2023-05-19T07:27:04.499Z,13.12
2023-05-19T07:28:04.527Z,13.16
2023-05-19T07:29:04.482Z,13.19
2023-05-19T07:30:04.545Z,13.22
2023-05-19T07:31:04.473Z,13.25
2023-05-19T07:32:04.539Z,13.27
2023-05-19T07:33:04.483Z,13.30
2023-05-19T07:34:04.449Z,13.35
2023-05-19T07:35:04.426Z,13.37
2023-05-19T07:36:04.450Z,13.44
2023-05-19T07:37:04.392Z,13.47
2023-05-19T07:38:04.417Z,13.52
2023-05-19T07:39:04.424Z,13.54
2023-05-19T07:40:04.391Z,13.56
2023-05-19T07:41:04.383Z,13.57
2023-05-19T07:42:04.402Z,13.63
2023-05-19T07:43:04.330Z,13.67
2023-05-19T07:44:04.335Z,13.68
2023-05-19T07:45:04.310Z,13.67
2023-05-19T07:46:04.384Z,13.68
2023-05-19T07:47:04.295Z,13.72
2023-05-19T07:48:04.336Z,13.74
2023-05-19T07:49:04.284Z,13.75
2023-05-19T07:50:04.309Z,13.75
2023-05-19T07:51:04.258Z,13.78
2023-05-19T07:52:04.259Z,13.81
2023-05-19T07:53:04.245Z,13.83
2023-05-19T07:54:04.220Z,13.86
2023-05-19T07:55:04.226Z,13.90
2023-05-19T07:56:04.185Z,13.96
2023-05-19T07:57:04.254Z,13.97
2023-05-19T07:58:04.180Z,14.03
2023-05-19T07:59:04.175Z,14.04
2023-05-19T08:00:04.154Z,14.08
2023-05-19T08:01:04.175Z,14.12
2023-05-19T08:02:04.151Z,14.14
2023-05-19T08:03:04.247Z,14.20
2023-05-19T08:04:04.232Z,14.20
2023-05-19T08:05:04.110Z,14.23
2023-05-19T08:06:04.105Z,14.26
2023-05-19T08:07:04.117Z,14.26
2023-05-19T08:08:04.062Z,14.30
2023-05-19T08:09:04.100Z,14.32
2023-05-19T08:10:04.053Z,14.33
2023-05-19T08:11:04.114Z,14.37
2023-05-19T08:12:04.019Z,14.43
2023-05-19T08:13:04.045Z,14.43
2023-05-19T08:14:04.091Z,14.48
2023-05-19T08:15:04.019Z,14.48
2023-05-19T08:16:04.056Z,14.53
2023-05-19T08:17:03.982Z,14.54
2023-05-19T08:18:03.994Z,14.58
2023-05-19T08:19:04.014Z,14.59
2023-05-19T08:20:03.972Z,14.62
2023-05-19T08:21:04.106Z,14.62
2023-05-19T08:22:03.923Z,14.66
2023-05-19T08:23:04.024Z,14.68
2023-05-19T08:24:03.897Z,14.70
2023-05-19T08:25:04.036Z,14.70
2023-05-19T08:26:03.893Z,14.72
2023-05-19T08:27:03.936Z,14.77
2023-05-19T08:28:03.869Z,14.81
2023-05-19T08:29:03.866Z,14.84
2023-05-19T08:30:03.838Z,14.86
2023-05-19T08:31:03.921Z,14.88
2023-05-19T08:32:03.924Z,14.92
2023-05-19T08:33:03.865Z,14.94
2023-05-19T08:34:03.818Z,14.97
2023-05-19T08:35:03.794Z,15.00
2023-05-19T08:36:03.785Z,15.03
2023-05-19T08:37:03.779Z,15.06
2023-05-19T08:38:03.867Z,15.09
2023-05-19T08:39:03.755Z,15.17
2023-05-19T08:40:03.727Z,15.19
2023-05-19T08:41:03.750Z,15.21
2023-05-19T08:42:03.719Z,15.27
2023-05-19T08:43:03.705Z,15.31
2023-05-19T08:44:03.731Z,15.37
2023-05-19T08:45:03.685Z,15.40
2023-05-19T08:46:03.660Z,15.43
2023-05-19T08:47:03.794Z,15.46
2023-05-19T08:48:03.656Z,15.49
2023-05-19T08:49:03.687Z,15.51
2023-05-19T08:50:03.651Z,15.52
2023-05-19T08:51:03.620Z,15.55
2023-05-19T08:52:03.651Z,15.54
2023-05-19T08:53:03.596Z,15.55
2023-05-19T08:54:03.683Z,15.55
2023-05-19T08:55:03.576Z,15.57
2023-05-19T08:56:03.572Z,15.58
2023-05-19T08:57:03.614Z,15.62
2023-05-19T08:58:03.533Z,15.62
2023-05-19T08:59:03.538Z,15.65
2023-05-19T09:00:03.500Z,15.70
2023-05-19T09:01:03.572Z,15.75
2023-05-19T09:02:03.514Z,15.75
2023-05-19T09:03:22.669Z,15.79
2023-05-19T09:04:03.634Z,15.77
2023-05-19T09:05:03.531Z,15.82
2023-05-19T09:06:03.473Z,15.83
2023-05-19T09:07:03.485Z,15.90
2023-05-19T09:08:03.432Z,15.92
2023-05-19T09:09:03.472Z,15.94
2023-05-19T09:10:03.406Z,15.95
2023-05-19T09:11:03.407Z,16.00
2023-05-19T09:12:03.405Z,16.01
2023-05-19T09:13:03.422Z,16.04
2023-05-19T09:14:03.355Z,16.05
2023-05-19T09:15:03.357Z,16.09
2023-05-19T09:16:03.377Z,16.10
2023-05-19T09:17:03.438Z,16.13
2023-05-19T09:18:03.443Z,16.17
2023-05-19T09:19:03.368Z,16.16
2023-05-19T09:20:03.338Z,16.17
2023-05-19T09:21:03.466Z,16.21
2023-05-19T09:22:03.387Z,16.23
2023-05-19T09:23:03.282Z,16.28
2023-05-19T09:24:03.273Z,16.29
2023-05-19T09:25:03.280Z,16.31
2023-05-19T09:26:03.232Z,16.35
2023-05-19T09:27:03.282Z,16.35
2023-05-19T09:28:03.210Z,16.38
2023-05-19T09:29:03.238Z,16.42
2023-05-19T09:30:03.193Z,16.43
2023-05-19T09:31:03.241Z,16.46
2023-05-19T09:32:03.265Z,16.50
2023-05-19T09:33:03.194Z,16.51
2023-05-19T09:34:03.140Z,16.53
2023-05-19T09:35:03.185Z,16.58
2023-05-19T09:36:03.143Z,16.60
2023-05-19T09:37:03.159Z,16.64
2023-05-19T09:38:03.094Z,16.66
2023-05-19T09:39:03.111Z,16.68
2023-05-19T09:40:03.108Z,16.68
2023-05-19T09:41:03.105Z,16.72
2023-05-19T09:42:03.067Z,16.74
2023-05-19T09:43:03.068Z,16.76
2023-05-19T09:44:03.060Z,16.78
2023-05-19T09:45:03.038Z,16.81
2023-05-19T09:46:03.064Z,16.81
2023-05-19T09:47:03.048Z,16.83
2023-05-19T09:48:03.114Z,16.87
2023-05-19T09:49:03.009Z,16.91
2023-05-19T09:50:02.988Z,16.96
2023-05-19T09:51:02.977Z,16.99
2023-05-19T09:52:02.982Z,17.05
2023-05-19T09:53:02.970Z,17.08
2023-05-19T09:54:02.949Z,17.11
2023-05-19T09:55:02.987Z,17.16
2023-05-19T09:56:02.904Z,17.24
2023-05-19T09:57:02.915Z,17.29
2023-05-19T09:58:02.888Z,17.33
2023-05-19T09:59:02.905Z,17.34
2023-05-19T10:00:02.875Z,17.41
2023-05-19T10:01:02.912Z,17.45
2023-05-19T10:02:03.223Z,17.49
2023-05-19T10:03:02.938Z,17.59
2023-05-19T10:04:03.765Z,17.64
2023-05-19T10:05:02.901Z,17.72
2023-05-19T10:06:02.900Z,17.80
2023-05-19T10:07:02.811Z,17.89
2023-05-19T10:08:02.788Z,17.94
2023-05-19T10:09:02.774Z,18.00
2023-05-19T10:10:02.757Z,18.03
2023-05-19T10:11:02.759Z,18.08
2023-05-19T10:12:02.789Z,18.13
2023-05-19T10:13:02.737Z,18.19
2023-05-19T10:14:02.710Z,18.26
2023-05-19T10:15:02.754Z,18.31
2023-05-19T10:16:02.995Z,18.38
2023-05-19T10:17:02.839Z,18.45
2023-05-19T10:18:02.728Z,18.49
2023-05-19T10:19:02.759Z,18.58
2023-05-19T10:20:02.683Z,18.62
2023-05-19T10:21:02.776Z,18.66
2023-05-19T10:22:02.669Z,18.71
2023-05-19T10:23:02.632Z,18.75
2023-05-19T10:24:02.637Z,18.78
2023-05-19T10:25:02.609Z,18.83
2023-05-19T10:26:02.589Z,18.89
2023-05-19T10:27:02.643Z,18.92
2023-05-19T10:28:02.576Z,18.96
2023-05-19T10:29:02.581Z,19.00
2023-05-19T10:30:02.577Z,19.00
2023-05-19T10:31:02.644Z,19.08
2023-05-19T10:32:02.602Z,19.09
2023-05-19T10:33:02.581Z,19.14
2023-05-19T10:34:02.511Z,19.15
2023-05-19T10:35:02.512Z,19.22
2023-05-19T10:36:02.515Z,19.24
2023-05-19T10:37:02.514Z,19.30
2023-05-19T10:38:02.507Z,19.31
2023-05-19T10:39:02.485Z,19.37
2023-05-19T10:40:02.446Z,19.41
2023-05-19T10:41:03.371Z,19.48
2023-05-19T10:42:02.445Z,19.52
2023-05-19T10:43:02.420Z,19.55
2023-05-19T10:44:02.427Z,19.62
2023-05-19T10:45:02.394Z,19.66
2023-05-19T10:46:02.431Z,19.66
2023-05-19T10:47:02.419Z,19.67
2023-05-19T10:48:02.450Z,19.70
2023-05-19T10:49:02.354Z,19.70
2023-05-19T10:50:02.444Z,19.70
2023-05-19T10:51:02.470Z,19.73
2023-05-19T10:52:02.371Z,19.74
2023-05-19T10:53:02.322Z,19.74
2023-05-19T10:54:02.290Z,19.73
2023-05-19T10:55:02.306Z,19.70
2023-05-19T10:56:02.347Z,19.66
2023-05-19T10:57:02.317Z,19.64
2023-05-19T10:58:02.249Z,19.63
2023-05-19T10:59:02.294Z,19.62
2023-05-19T11:00:02.228Z,19.62
2023-05-19T11:01:02.287Z,19.62
2023-05-19T11:02:02.405Z,19.62
2023-05-19T11:03:02.246Z,19.58
2023-05-19T11:04:02.223Z,19.55
2023-05-19T11:05:02.192Z,19.55
2023-05-19T11:06:02.209Z,19.55
2023-05-19T11:07:02.179Z,19.55
2023-05-19T11:08:02.264Z,19.55
2023-05-19T11:09:02.165Z,19.56
2023-05-19T11:10:02.130Z,19.56
2023-05-19T11:11:02.210Z,19.58
2023-05-19T11:12:02.114Z,19.62
2023-05-19T11:13:02.108Z,19.59
2023-05-19T11:14:02.110Z,19.63
2023-05-19T11:15:02.089Z,19.66
2023-05-19T11:16:02.142Z,19.71
2023-05-19T11:17:02.105Z,19.76
2023-05-19T11:18:02.109Z,19.84
2023-05-19T11:19:02.102Z,19.92
2023-05-19T11:20:02.009Z,19.99
2023-05-19T11:21:02.274Z,20.03
2023-05-19T11:22:02.061Z,20.07
2023-05-19T11:23:02.041Z,20.09
2023-05-19T11:24:02.107Z,20.13
2023-05-19T11:25:01.989Z,20.14
2023-05-19T11:26:02.039Z,20.21
2023-05-19T11:27:01.988Z,20.25
2023-05-19T11:28:01.959Z,20.31
2023-05-19T11:29:01.925Z,20.34
2023-05-19T11:30:02.127Z,20.40
2023-05-19T11:31:02.197Z,20.47
2023-05-19T11:32:01.960Z,20.50
2023-05-19T11:33:01.940Z,20.56
2023-05-19T11:34:01.895Z,20.62
2023-05-19T11:35:02.005Z,20.66
2023-05-19T11:36:01.948Z,20.69
2023-05-19T11:37:01.871Z,20.72
2023-05-19T11:38:01.837Z,20.77
2023-05-19T11:39:01.856Z,20.81
2023-05-19T11:40:01.852Z,20.90
2023-05-19T11:41:02.101Z,20.97
2023-05-19T11:42:01.780Z,21.07
2023-05-19T11:43:01.784Z,21.15
2023-05-19T11:44:01.778Z,21.18
2023-05-19T11:45:01.795Z,21.27
2023-05-19T11:46:01.821Z,21.30
2023-05-19T11:47:01.740Z,21.35
2023-05-19T11:48:03.121Z,21.36
2023-05-19T11:49:01.721Z,21.42
2023-05-19T11:50:01.686Z,21.46
2023-05-19T11:51:01.751Z,21.52
2023-05-19T11:52:01.678Z,21.58
2023-05-19T11:53:01.751Z,21.67
2023-05-19T11:54:01.676Z,21.73
2023-05-19T11:55:01.672Z,21.80
2023-05-19T11:56:01.666Z,21.88
2023-05-19T11:57:01.649Z,21.91
2023-05-19T11:58:03.924Z,21.96
2023-05-19T11:59:01.620Z,21.98
2023-05-19T12:00:01.582Z,21.98
2023-05-19T12:01:01.617Z,21.99
2023-05-19T12:02:01.565Z,22.00
2023-05-19T12:03:01.698Z,22.04
2023-05-19T12:04:01.562Z,22.07
2023-05-19T12:05:01.589Z,22.11
2023-05-19T12:06:01.564Z,22.20
2023-05-19T12:07:01.524Z,22.29
2023-05-19T12:08:01.531Z,22.32
2023-05-19T12:09:01.503Z,22.36
2023-05-19T12:10:01.547Z,22.38
2023-05-19T12:11:01.630Z,22.35
2023-05-19T12:12:01.566Z,22.38
2023-05-19T12:13:01.469Z,22.39
2023-05-19T12:14:01.481Z,22.41
2023-05-19T12:15:01.445Z,22.48
2023-05-19T12:16:01.568Z,22.54
2023-05-19T12:17:01.399Z,22.59
2023-05-19T12:18:01.460Z,22.65
2023-05-19T12:19:01.401Z,22.69
2023-05-19T12:20:01.395Z,22.73
2023-05-19T12:21:01.449Z,22.78
2023-05-19T12:22:02.261Z,22.80
2023-05-19T12:23:01.358Z,22.81
2023-05-19T12:24:01.368Z,22.83
2023-05-19T12:25:01.323Z,22.87
2023-05-19T12:26:01.347Z,22.93
2023-05-19T12:27:01.314Z,22.98
2023-05-19T12:28:01.324Z,23.03
2023-05-19T12:29:01.273Z,23.09
2023-05-19T12:30:01.293Z,23.15
2023-05-19T12:31:01.277Z,23.20
2023-05-19T12:32:01.377Z,23.25
2023-05-19T12:33:01.265Z,23.27
2023-05-19T12:34:01.226Z,23.25
2023-05-19T12:35:01.209Z,23.25
2023-05-19T12:36:01.269Z,23.25
2023-05-19T12:37:01.199Z,23.31
2023-05-19T12:38:01.231Z,23.28
2023-05-19T12:39:01.184Z,23.32
2023-05-19T12:40:01.192Z,23.32
2023-05-19T12:41:01.160Z,23.36
2023-05-19T12:42:01.163Z,23.41
2023-05-19T12:43:01.141Z,23.41
2023-05-19T12:44:01.147Z,23.39
2023-05-19T12:45:03.137Z,23.44
2023-05-19T12:46:01.217Z,23.44
2023-05-19T12:47:01.101Z,23.54
2023-05-19T12:48:01.153Z,23.62
2023-05-19T12:49:01.101Z,23.69
2023-05-19T12:50:01.083Z,23.76
2023-05-19T12:51:01.096Z,23.81
2023-05-19T12:52:02.574Z,23.87
2023-05-19T12:53:01.036Z,23.84
2023-05-19T12:54:01.041Z,23.83
2023-05-19T12:55:01.034Z,23.80
2023-05-19T12:56:01.013Z,23.78
2023-05-19T12:57:01.016Z,23.80
2023-05-19T12:58:01.021Z,23.80
2023-05-19T12:59:00.968Z,23.81
2023-05-19T13:00:01.021Z,23.73
2023-05-19T13:01:01.077Z,23.69
2023-05-19T13:02:01.988Z,23.63
2023-05-19T13:03:01.017Z,23.61
2023-05-19T13:04:02.759Z,23.59
2023-05-19T13:05:00.906Z,23.59
2023-05-19T13:06:00.942Z,23.59
2023-05-19T13:07:00.890Z,23.61
2023-05-19T13:08:00.879Z,23.55
2023-05-19T13:09:00.898Z,23.58
2023-05-19T13:10:00.853Z,23.59
2023-05-19T13:11:00.927Z,23.59
2023-05-19T13:12:01.437Z,23.62
2023-05-19T13:13:00.817Z,23.68
2023-05-19T13:14:00.813Z,23.73
2023-05-19T13:15:00.798Z,23.77
2023-05-19T13:16:00.792Z,23.76
2023-05-19T13:17:00.898Z,23.76
2023-05-19T13:18:00.806Z,23.74
2023-05-19T13:19:01.478Z,23.73
2023-05-19T13:20:00.844Z,23.73
2023-05-19T13:21:00.803Z,23.73
2023-05-19T13:22:00.778Z,23.77
2023-05-19T13:23:00.705Z,23.80
2023-05-19T13:24:00.701Z,23.84
2023-05-19T13:25:00.678Z,23.87
2023-05-19T13:26:00.706Z,23.93
2023-05-19T13:27:00.671Z,23.96
2023-05-19T13:28:00.669Z,23.95
2023-05-19T13:29:00.637Z,23.88
2023-05-19T13:30:00.671Z,23.83
2023-05-19T13:31:00.734Z,23.81
2023-05-19T13:32:01.645Z,23.80
2023-05-19T13:33:00.615Z,23.83
2023-05-19T13:34:00.603Z,23.83
2023-05-19T13:35:00.584Z,23.83
2023-05-19T13:36:00.614Z,23.88
2023-05-19T13:37:00.592Z,23.87
2023-05-19T13:38:00.617Z,23.92
2023-05-19T13:39:00.540Z,23.91
2023-05-19T13:40:01.345Z,23.95
2023-05-19T13:41:00.545Z,23.99
2023-05-19T13:42:00.528Z,23.96
2023-05-19T13:43:00.500Z,23.96
2023-05-19T13:44:00.533Z,23.99
2023-05-19T13:45:00.475Z,24.02
2023-05-19T13:46:00.555Z,24.13
2023-05-19T13:47:00.498Z,24.14
2023-05-19T13:48:00.550Z,24.20
2023-05-19T13:49:00.446Z,24.24
2023-05-19T13:50:00.461Z,24.29
2023-05-19T13:51:00.512Z,24.36
2023-05-19T13:52:00.426Z,24.45
2023-05-19T13:53:00.410Z,24.50
2023-05-19T13:54:00.425Z,24.61
2023-05-19T13:55:00.390Z,24.69
2023-05-19T13:56:00.418Z,24.77
2023-05-19T13:57:00.354Z,24.80
2023-05-19T13:58:00.355Z,24.92
2023-05-19T13:59:00.368Z,24.93
2023-05-19T14:00:02.810Z,24.99
2023-05-19T14:01:00.550Z,25.04
2023-05-19T14:02:00.416Z,24.99
2023-05-19T14:03:00.532Z,24.92
2023-05-19T14:04:01.213Z,24.77
2023-05-19T14:05:00.283Z,24.70
2023-05-19T14:06:00.306Z,24.68
2023-05-19T14:07:00.265Z,24.66
2023-05-19T14:08:00.261Z,24.65
2023-05-19T14:09:00.224Z,24.63
2023-05-19T14:10:00.230Z,24.58
2023-05-19T14:11:00.215Z,24.54
2023-05-19T14:12:00.237Z,24.51
2023-05-19T14:14:00.200Z,24.48
2023-05-19T14:15:00.510Z,24.48
2023-05-19T14:16:00.288Z,24.51
2023-05-19T14:17:00.133Z,24.55
2023-05-19T14:18:00.217Z,24.54
2023-05-19T14:19:00.198Z,24.57
2023-05-19T14:20:00.168Z,24.60
2023-05-19T14:21:00.118Z,24.61
2023-05-19T14:22:00.107Z,24.63
2023-05-19T14:23:00.125Z,24.66
2023-05-19T14:24:00.129Z,24.68
2023-05-19T14:25:00.062Z,24.65
2023-05-19T14:26:00.137Z,24.65
2023-05-19T14:27:00.027Z,24.60
2023-05-19T14:28:00.045Z,24.50
2023-05-19T14:29:00.027Z,24.45
2023-05-19T14:30:00.065Z,24.38
2023-05-19T14:30:59.998Z,24.28
2023-05-19T14:32:00.005Z,24.17
2023-05-19T14:33:00.022Z,24.08
2023-05-19T14:34:00.016Z,24.02
2023-05-19T14:34:59.942Z,23.96
2023-05-19T14:36:00.004Z,23.88
2023-05-19T14:36:59.942Z,23.80
2023-05-19T14:37:59.917Z,23.71
2023-05-19T14:38:59.934Z,23.68
2023-05-19T14:39:59.903Z,23.65
2023-05-19T14:40:59.899Z,23.62
2023-05-19T14:41:59.922Z,23.63
2023-05-19T14:42:59.850Z,23.63
2023-05-19T14:43:59.854Z,23.59
2023-05-19T14:44:59.883Z,23.61
2023-05-19T14:45:59.928Z,23.56
2023-05-19T14:46:59.870Z,23.55
2023-05-19T14:47:59.844Z,23.56
2023-05-19T14:48:59.786Z,23.63
2023-05-19T14:49:59.809Z,23.65
2023-05-19T14:50:59.883Z,23.71
2023-05-19T14:51:59.854Z,23.83
2023-05-19T14:52:59.750Z,23.86
2023-05-19T14:53:59.766Z,23.87
2023-05-19T14:54:59.771Z,23.91
2023-05-19T14:55:59.849Z,23.91
2023-05-19T14:56:59.733Z,23.86
2023-05-19T14:57:59.743Z,23.81
2023-05-19T14:58:59.713Z,23.80
2023-05-19T14:59:59.709Z,23.77
2023-05-19T15:00:59.797Z,23.73
2023-05-19T15:01:59.701Z,23.68
2023-05-19T15:02:59.696Z,23.62
2023-05-19T15:03:59.735Z,23.59
2023-05-19T15:04:59.619Z,23.56
2023-05-19T15:05:59.709Z,23.51
2023-05-19T15:07:09.674Z,23.47
2023-05-19T15:07:59.633Z,23.37
2023-05-19T15:08:59.626Z,23.23
2023-05-19T15:09:59.619Z,23.15
2023-05-19T15:10:59.642Z,23.09
2023-05-19T15:11:59.588Z,23.00
2023-05-19T15:12:59.560Z,22.93
2023-05-19T15:13:59.547Z,22.88
2023-05-19T15:14:59.523Z,22.87
2023-05-19T15:16:15.635Z,22.98
2023-05-19T15:16:59.586Z,23.09
2023-05-19T15:17:59.605Z,23.13
2023-05-19T15:18:59.534Z,23.12
2023-05-19T15:19:59.503Z,23.08
2023-05-19T15:20:59.518Z,23.03
2023-05-19T15:21:59.481Z,22.94
2023-05-19T15:22:59.445Z,22.85
2023-05-19T15:23:59.460Z,22.76
2023-05-19T15:24:59.422Z,22.68
2023-05-19T15:25:59.487Z,22.59
2023-05-19T15:26:59.446Z,22.51
2023-05-19T15:27:59.431Z,22.48
2023-05-19T15:28:59.370Z,22.43
2023-05-19T15:29:59.384Z,22.41
2023-05-19T15:30:59.491Z,22.36
2023-05-19T15:31:59.416Z,22.35
2023-05-19T15:32:59.398Z,22.32
2023-05-19T15:33:59.366Z,22.26
2023-05-19T15:34:59.306Z,22.23
2023-05-19T15:35:59.372Z,22.18
2023-05-19T15:36:59.307Z,22.15
2023-05-19T15:37:59.299Z,22.14
2023-05-19T15:38:59.270Z,22.13
2023-05-19T15:39:59.356Z,22.13
2023-05-19T15:40:59.249Z,22.13
2023-05-19T15:41:59.281Z,22.11
2023-05-19T15:42:59.218Z,22.14
2023-05-19T15:43:59.240Z,22.13
2023-05-19T15:44:59.205Z,22.13
2023-05-19T15:45:59.323Z,22.14
2023-05-19T15:46:59.189Z,22.15
2023-05-19T15:47:59.203Z,22.13
2023-05-19T15:48:59.188Z,22.14
2023-05-19T15:49:59.249Z,22.14
2023-05-19T15:50:59.211Z,22.17
2023-05-19T15:51:59.165Z,22.20
2023-05-19T15:52:59.121Z,22.25
2023-05-19T15:53:59.150Z,22.25
2023-05-19T15:54:59.166Z,22.23
2023-05-19T15:55:59.153Z,22.25
2023-05-19T15:56:59.171Z,22.25
2023-05-19T15:57:59.078Z,22.22
2023-05-19T15:58:59.040Z,22.25
2023-05-19T15:59:59.064Z,22.23
2023-05-19T16:00:59.102Z,22.23
2023-05-19T16:01:59.108Z,22.25
2023-05-19T16:02:59.130Z,22.25
2023-05-19T16:03:59.124Z,22.26
2023-05-19T16:04:59.002Z,22.28
2023-05-19T16:05:59.061Z,22.30
2023-05-19T16:06:58.970Z,22.32
2023-05-19T16:07:58.975Z,22.35
2023-05-19T16:08:58.991Z,22.35
2023-05-19T16:09:58.965Z,22.35
2023-05-19T16:10:58.982Z,22.38
2023-05-19T16:11:58.956Z,22.41
2023-05-19T16:12:58.929Z,22.44
2023-05-19T16:13:58.916Z,22.45
2023-05-19T16:14:58.917Z,22.45
2023-05-19T16:15:58.953Z,22.47
2023-05-19T16:16:59.721Z,22.48
2023-05-19T16:17:58.933Z,22.50
2023-05-19T16:18:58.920Z,22.48
2023-05-19T16:19:58.852Z,22.48
2023-05-19T16:20:58.889Z,22.48
2023-05-19T16:21:58.931Z,22.48
2023-05-19T16:22:58.798Z,22.48
2023-05-19T16:23:58.850Z,22.44
2023-05-19T16:24:58.805Z,22.43
2023-05-19T16:25:58.793Z,22.41
2023-05-19T16:26:58.797Z,22.38
2023-05-19T16:27:58.745Z,22.36
2023-05-19T16:28:58.761Z,22.36
2023-05-19T16:29:58.766Z,22.36
2023-05-19T16:30:58.784Z,22.38
2023-05-19T16:31:58.796Z,22.43
2023-05-19T16:32:58.752Z,22.41
2023-05-19T16:33:58.722Z,22.43
2023-05-19T16:34:58.694Z,22.41
2023-05-19T16:35:58.776Z,22.41
2023-05-19T16:36:58.678Z,22.44
2023-05-19T16:37:58.645Z,22.43
2023-05-19T16:38:58.641Z,22.45
2023-05-19T16:39:58.615Z,22.45
2023-05-19T16:40:58.696Z,22.41
2023-05-19T16:41:58.599Z,22.43
2023-05-19T16:42:58.590Z,22.39
2023-05-19T16:43:58.580Z,22.43
2023-05-19T16:44:58.583Z,22.44
2023-05-19T16:45:58.655Z,22.45
2023-05-19T16:46:58.586Z,22.47
2023-05-19T16:47:58.611Z,22.50
2023-05-19T16:48:58.540Z,22.53
2023-05-19T16:49:58.542Z,22.57
2023-05-19T16:50:58.539Z,22.60
2023-05-19T16:51:58.514Z,22.60
2023-05-19T16:52:58.556Z,22.54
2023-05-19T16:53:58.465Z,22.57
2023-05-19T16:54:58.527Z,22.55
2023-05-19T16:55:58.530Z,22.59
2023-05-19T16:56:58.506Z,22.55
2023-05-19T16:57:58.440Z,22.54
2023-05-19T16:58:58.463Z,22.57
2023-05-19T16:59:58.404Z,22.55
2023-05-19T17:00:58.519Z,22.54
2023-05-19T17:01:58.481Z,22.50
2023-05-19T17:02:58.510Z,22.48
2023-05-19T17:03:58.395Z,22.41
2023-05-19T17:04:58.380Z,22.33
2023-05-19T17:05:58.427Z,22.28
2023-05-19T17:06:58.353Z,22.26
2023-05-19T17:07:58.327Z,22.25
2023-05-19T17:08:58.335Z,22.23
2023-05-19T17:09:58.295Z,22.17
2023-05-19T17:10:58.342Z,22.13
2023-05-19T17:11:58.552Z,22.08
2023-05-19T17:12:58.301Z,22.07
2023-05-19T17:13:58.269Z,22.08
2023-05-19T17:14:58.273Z,22.10
2023-05-19T17:15:58.259Z,22.07
2023-05-19T17:16:58.313Z,22.06
2023-05-19T17:17:58.295Z,21.99
2023-05-19T17:18:58.255Z,21.99
2023-05-19T17:19:58.196Z,21.95
2023-05-19T17:20:58.224Z,21.96
2023-05-19T17:21:58.194Z,21.96
2023-05-19T17:22:58.240Z,21.95
2023-05-19T17:23:58.169Z,21.91